createdAt,value
2022-09-09T00:01:51.162Z,100421.94
2022-09-09T00:04:31.206Z,100424.41
2022-09-09T00:07:03.426Z,100421.06
2022-09-09T00:09:42.344Z,100426.47
2022-09-09T00:12:15.820Z,100431.19
2022-09-09T00:15:12.893Z,100431.38
2022-09-09T00:17:55.359Z,100426.50
2022-09-09T00:20:41.681Z,100423.97
2022-09-09T00:23:28.418Z,100422.91
2022-09-09T00:26:18.079Z,100427.94
2022-09-09T00:29:01.868Z,100428.16
2022-09-09T00:31:32.464Z,100429.13
2022-09-09T00:34:12.224Z,100426.25
2022-09-09T00:36:41.063Z,100427.66
2022-09-09T00:39:33.951Z,100430.44
2022-09-09T00:42:24.932Z,100428.91
2022-09-09T00:44:54.657Z,100437.72
2022-09-09T00:47:38.479Z,100433.59
2022-09-09T00:50:15.357Z,100429.00
2022-09-09T00:52:53.264Z,100433.50
2022-09-09T00:55:29.063Z,100424.97
2022-09-09T00:57:57.236Z,100430.72
2022-09-09T01:00:28.687Z,100428.47
2022-09-09T01:03:11.524Z,100430.41
2022-09-09T01:05:52.012Z,100425.63
2022-09-09T01:08:44.186Z,100427.16
2022-09-09T01:11:50.327Z,100418.84
2022-09-09T01:14:33.789Z,100423.63
2022-09-09T01:17:21.046Z,100416.50
2022-09-09T01:20:18.237Z,100413.22
2022-09-09T01:23:05.581Z,100406.25
2022-09-09T01:25:45.270Z,100411.16
2022-09-09T01:28:26.612Z,100412.47
2022-09-09T01:31:00.173Z,100418.13
2022-09-09T01:33:32.399Z,100409.63
2022-09-09T01:36:11.834Z,100402.56
2022-09-09T01:38:47.199Z,100400.00
2022-09-09T01:41:15.911Z,100396.53
2022-09-09T01:43:52.980Z,100400.03
2022-09-09T01:46:23.272Z,100398.69
2022-09-09T01:48:53.927Z,100388.28
2022-09-09T01:51:22.483Z,100394.41
2022-09-09T01:53:50.924Z,100390.81
2022-09-09T01:56:28.275Z,100386.69
2022-09-09T01:59:05.807Z,100382.91
2022-09-09T02:02:02.253Z,100385.19
2022-09-09T02:04:46.794Z,100377.03
2022-09-09T02:07:43.142Z,100379.69
2022-09-09T02:10:39.345Z,100381.88
2022-09-09T02:13:23.093Z,100389.44
2022-09-09T02:16:10.453Z,100391.13
2022-09-09T02:18:45.947Z,100393.13
2022-09-09T02:21:15.626Z,100390.88
2022-09-09T02:23:45.716Z,100396.31
2022-09-09T02:26:21.451Z,100381.44
2022-09-09T02:28:59.723Z,100383.09
2022-09-09T02:31:27.631Z,100378.78
2022-09-09T02:34:03.153Z,100376.81
2022-09-09T02:36:35.531Z,100371.91
2022-09-09T02:39:05.810Z,100387.38
2022-09-09T02:41:40.118Z,100392.25
2022-09-09T02:44:16.908Z,100399.56
2022-09-09T02:47:09.243Z,100392.69
2022-09-09T02:49:44.673Z,100398.44
2022-09-09T02:52:19.795Z,100399.91
2022-09-09T02:54:52.754Z,100397.50
2022-09-09T02:57:26.526Z,100397.59
2022-09-09T02:59:59.306Z,100405.84
2022-09-09T03:02:27.677Z,100386.63
2022-09-09T03:05:01.176Z,100398.31
2022-09-09T03:07:28.884Z,100385.19
2022-09-09T03:09:57.221Z,100389.69
2022-09-09T03:12:27.740Z,100398.50
2022-09-09T03:14:55.592Z,100380.28
2022-09-09T03:17:25.805Z,100370.00
2022-09-09T03:19:56.251Z,100385.59
2022-09-09T03:22:24.184Z,100376.59
2022-09-09T03:24:52.790Z,100368.97
2022-09-09T03:27:20.834Z,100368.81
2022-09-09T03:29:52.381Z,100369.56
2022-09-09T03:32:25.387Z,100362.03
2022-09-09T03:34:53.892Z,100354.78
2022-09-09T03:37:21.702Z,100359.28
2022-09-09T03:39:51.373Z,100351.09
2022-09-09T03:42:20.577Z,100352.38
2022-09-09T03:44:52.485Z,100346.78
2022-09-09T03:47:23.677Z,100351.19
2022-09-09T03:49:55.701Z,100347.88
2022-09-09T03:52:28.339Z,100345.41
2022-09-09T03:54:58.047Z,100353.09
2022-09-09T03:57:26.009Z,100353.88
2022-09-09T03:59:53.976Z,100346.31
2022-09-09T04:02:22.747Z,100346.06
2022-09-09T04:04:50.680Z,100355.63
2022-09-09T04:07:18.548Z,100344.34
2022-09-09T04:09:47.085Z,100346.53
2022-09-09T04:12:15.816Z,100336.03
2022-09-09T04:14:43.837Z,100346.13
2022-09-09T04:17:12.211Z,100336.78
2022-09-09T04:19:40.160Z,100338.94
2022-09-09T04:22:08.603Z,100348.44
2022-09-09T04:24:37.019Z,100351.72
2022-09-09T04:27:04.993Z,100344.34
2022-09-09T04:29:36.255Z,100344.59
2022-09-09T04:32:04.175Z,100349.44
2022-09-09T04:34:32.543Z,100342.94
2022-09-09T04:37:01.519Z,100352.97
2022-09-09T04:39:30.063Z,100344.09
2022-09-09T04:41:59.866Z,100345.13
2022-09-09T04:44:27.887Z,100342.66
2022-09-09T04:46:55.982Z,100336.19
2022-09-09T04:49:24.387Z,100336.72
2022-09-09T04:51:53.086Z,100330.34
2022-09-09T04:54:22.623Z,100337.75
2022-09-09T04:56:52.212Z,100331.78
2022-09-09T04:59:20.679Z,100330.47
2022-09-09T05:01:53.218Z,100333.13
2022-09-09T05:04:22.724Z,100331.09
2022-09-09T05:06:50.586Z,100342.59
2022-09-09T05:09:18.370Z,100341.84
2022-09-09T05:11:47.969Z,100349.41
2022-09-09T05:14:31.225Z,100356.06
2022-09-09T05:17:01.322Z,100350.94
2022-09-09T05:19:29.250Z,100360.06
2022-09-09T05:21:57.171Z,100360.19
2022-09-09T05:24:34.397Z,100363.06
2022-09-09T05:27:04.179Z,100367.22
2022-09-09T05:29:34.576Z,100367.25
2022-09-09T05:32:04.968Z,100372.31
2022-09-09T05:34:33.313Z,100376.00
2022-09-09T05:37:02.318Z,100374.47
2022-09-09T05:39:30.478Z,100383.09
2022-09-09T05:41:58.430Z,100382.22
2022-09-09T05:44:28.753Z,100384.34
2022-09-09T05:46:57.059Z,100388.75
2022-09-09T05:49:25.226Z,100383.75
2022-09-09T05:51:54.047Z,100394.31
2022-09-09T05:54:22.470Z,100392.16
2022-09-09T05:56:53.912Z,100397.63
2022-09-09T05:59:21.935Z,100395.97
2022-09-09T06:01:52.109Z,100398.09
2022-09-09T06:04:26.035Z,100407.72
2022-09-09T06:06:54.142Z,100399.97
2022-09-09T06:09:24.039Z,100394.72
2022-09-09T06:11:52.151Z,100385.09
2022-09-09T06:14:22.927Z,100395.94
2022-09-09T06:16:53.069Z,100398.91
2022-09-09T06:19:27.965Z,100406.84
2022-09-09T06:21:58.508Z,100400.94
2022-09-09T06:24:26.941Z,100401.00
2022-09-09T06:26:56.923Z,100398.16
2022-09-09T06:29:31.372Z,100396.13
2022-09-09T06:32:00.264Z,100399.94
2022-09-09T06:34:29.500Z,100401.63
2022-09-09T06:37:02.049Z,100398.81
2022-09-09T06:39:48.091Z,100400.88
2022-09-09T06:42:16.892Z,100391.19
2022-09-09T06:44:51.213Z,100391.50
2022-09-09T06:47:34.784Z,100389.66
2022-09-09T06:50:03.997Z,100382.81
2022-09-09T06:52:35.209Z,100385.69
2022-09-09T06:55:05.040Z,100397.28
2022-09-09T06:57:37.344Z,100394.94
2022-09-09T07:00:15.251Z,100391.63
2022-09-09T07:02:43.186Z,100391.28
2022-09-09T07:05:12.138Z,100398.13
2022-09-09T07:07:42.222Z,100390.94
2022-09-09T07:10:11.981Z,100397.72
2022-09-09T07:12:39.874Z,100398.94
2022-09-09T07:15:11.195Z,100397.00
2022-09-09T07:17:42.569Z,100396.63
2022-09-09T07:20:10.897Z,100390.19
2022-09-09T07:22:39.137Z,100387.75
2022-09-09T07:25:07.644Z,100385.44
2022-09-09T07:27:36.859Z,100385.44
2022-09-09T07:30:07.056Z,100379.03
2022-09-09T07:32:34.910Z,100373.41
2022-09-09T07:35:03.586Z,100375.03
2022-09-09T07:37:31.999Z,100373.81
2022-09-09T07:40:00.001Z,100378.69
2022-09-09T07:42:28.362Z,100379.84
2022-09-09T07:44:56.308Z,100375.84
2022-09-09T07:47:25.941Z,100383.06
2022-09-09T07:49:53.872Z,100370.66
2022-09-09T07:52:27.731Z,100370.63
2022-09-09T07:55:01.602Z,100370.22
2022-09-09T07:57:31.853Z,100373.44
2022-09-09T07:59:59.954Z,100381.50
2022-09-09T08:02:30.584Z,100381.84
2022-09-09T08:05:00.625Z,100382.28
2022-09-09T08:07:29.710Z,100385.06
2022-09-09T08:09:58.402Z,100391.50
2022-09-09T08:12:30.335Z,100392.31
2022-09-09T08:14:59.331Z,100393.94
2022-09-09T08:17:31.815Z,100387.91
2022-09-09T08:20:07.006Z,100396.31
2022-09-09T08:22:36.377Z,100406.31
2022-09-09T08:25:07.693Z,100399.06
2022-09-09T08:27:38.358Z,100399.88
2022-09-09T08:30:06.683Z,100407.06
2022-09-09T08:32:36.345Z,100401.38
2022-09-09T08:35:08.118Z,100394.56
2022-09-09T08:37:36.828Z,100389.03
2022-09-09T08:40:05.323Z,100391.03
2022-09-09T08:42:41.606Z,100387.41
2022-09-09T08:45:20.434Z,100389.38
2022-09-09T08:48:01.122Z,100389.78
2022-09-09T08:50:39.749Z,100387.69
2022-09-09T08:53:34.381Z,100384.00
2022-09-09T08:56:10.568Z,100384.38
2022-09-09T08:58:51.244Z,100379.47
2022-09-09T09:01:42.548Z,100387.25
2022-09-09T09:04:30.227Z,100384.22
2022-09-09T09:07:22.444Z,100381.41
2022-09-09T09:10:41.790Z,100381.34
2022-09-09T09:13:23.308Z,100380.50
2022-09-09T09:16:06.630Z,100379.34
2022-09-09T09:18:36.542Z,100377.88
2022-09-09T09:21:38.072Z,100385.69
2022-09-09T09:24:21.405Z,100379.91
2022-09-09T09:26:54.574Z,100380.22
2022-09-09T09:29:27.224Z,100376.34
2022-09-09T09:32:03.824Z,100368.69
2022-09-09T09:34:32.092Z,100364.81
2022-09-09T09:37:06.697Z,100363.06
2022-09-09T09:42:29.895Z,100372.59
2022-09-09T09:45:24.123Z,100360.59
2022-09-09T09:48:07.438Z,100360.53
2022-09-09T09:50:50.921Z,100370.19
2022-09-09T09:53:25.052Z,100380.59
2022-09-09T09:56:05.924Z,100410.56
2022-09-09T09:58:55.503Z,100438.22
2022-09-09T10:01:36.609Z,100454.53
2022-09-09T10:04:21.412Z,100454.94
2022-09-09T10:06:52.087Z,100470.38
2022-09-09T10:09:39.344Z,100491.84
2022-09-09T10:12:23.903Z,100507.81
2022-09-09T10:15:17.000Z,100491.25
2022-09-09T10:17:57.263Z,100503.28
2022-09-09T10:20:57.162Z,100508.19
2022-09-09T10:23:52.699Z,100506.78
2022-09-09T10:26:31.011Z,100493.53
2022-09-09T10:29:23.485Z,100492.03
2022-09-09T10:32:07.736Z,100495.16
2022-09-09T10:34:57.470Z,100493.53
2022-09-09T10:37:56.781Z,100481.13
2022-09-09T10:40:39.333Z,100473.69
2022-09-09T10:43:22.539Z,100468.81
2022-09-09T10:46:15.246Z,100474.00
2022-09-09T10:49:02.051Z,100474.53
2022-09-09T10:51:42.463Z,100467.53
2022-09-09T10:54:31.663Z,100457.75
2022-09-09T10:57:09.805Z,100449.31
2022-09-09T10:59:44.552Z,100444.19
2022-09-09T11:02:24.297Z,100429.16
2022-09-09T11:05:01.753Z,100433.50
2022-09-09T11:07:42.376Z,100434.22
2022-09-09T11:10:34.297Z,100423.38
2022-09-09T11:13:18.808Z,100418.66
2022-09-09T11:15:54.403Z,100415.31
2022-09-09T11:18:26.586Z,100422.44
2022-09-09T11:21:03.066Z,100419.38
2022-09-09T11:23:46.935Z,100410.22
2022-09-09T11:26:31.823Z,100411.47
2022-09-09T11:29:18.832Z,100409.69
2022-09-09T11:31:54.249Z,100406.88
2022-09-09T11:34:44.104Z,100402.25
2022-09-09T11:37:47.969Z,100393.94
2022-09-09T11:40:32.557Z,100401.31
2022-09-09T11:46:49.081Z,100394.59
2022-09-09T11:49:46.473Z,100401.31
2022-09-09T11:52:41.363Z,100397.41
2022-09-09T11:55:34.197Z,100401.47
2022-09-09T11:58:05.220Z,100387.47
2022-09-09T12:00:45.591Z,100394.31
2022-09-09T12:03:44.279Z,100383.88
2022-09-09T12:06:21.163Z,100385.47
2022-09-09T12:08:54.101Z,100379.81
2022-09-09T12:11:30.416Z,100377.75
2022-09-09T12:14:02.233Z,100382.19
2022-09-09T12:16:40.036Z,100364.88
2022-09-09T12:19:22.008Z,100369.19
2022-09-09T12:22:03.533Z,100368.63
2022-09-09T12:24:43.487Z,100365.38
2022-09-09T12:27:22.039Z,100370.16
2022-09-09T12:30:05.057Z,100357.34
2022-09-09T12:32:38.358Z,100353.31
2022-09-09T12:35:34.925Z,100354.41
2022-09-09T12:38:21.221Z,100349.06
2022-09-09T12:40:58.666Z,100359.69
2022-09-09T12:43:46.685Z,100348.75
2022-09-09T12:47:01.159Z,100345.66
2022-09-09T12:53:41.724Z,100350.03
2022-09-09T12:56:21.430Z,100343.47
2022-09-09T12:59:36.865Z,100334.88
2022-09-09T13:02:19.277Z,100342.16
2022-09-09T13:04:48.115Z,100338.16
2022-09-09T13:07:17.612Z,100343.59
2022-09-09T13:09:47.567Z,100327.47
2022-09-09T13:12:26.615Z,100336.38
2022-09-09T13:14:57.763Z,100331.69
2022-09-09T13:17:30.376Z,100333.50
2022-09-09T13:19:59.736Z,100333.72
2022-09-09T13:22:39.784Z,100337.38
2022-09-09T13:25:22.414Z,100333.78
2022-09-09T13:28:06.694Z,100326.31
2022-09-09T13:33:56.440Z,100329.31
2022-09-09T13:36:33.643Z,100320.63
2022-09-09T13:48:11.965Z,100318.19
2022-09-09T13:50:39.610Z,100318.66
2022-09-09T13:53:08.594Z,100313.31
2022-09-09T13:55:38.081Z,100310.81
2022-09-09T13:58:06.667Z,100317.44
2022-09-09T14:00:35.602Z,100307.97
2022-09-09T14:03:03.366Z,100304.59
2022-09-09T14:05:34.940Z,100303.09
2022-09-09T14:08:05.794Z,100305.47
2022-09-09T14:10:33.533Z,100296.94
2022-09-09T14:13:01.142Z,100299.13
2022-09-09T14:15:29.754Z,100286.41
2022-09-09T14:17:59.722Z,100292.41
2022-09-09T14:20:27.487Z,100293.09
2022-09-09T14:22:55.135Z,100293.38
2022-09-09T14:25:22.725Z,100294.75
2022-09-09T14:27:52.257Z,100298.31
2022-09-09T14:30:19.997Z,100294.84
2022-09-09T14:32:47.962Z,100301.19
2022-09-09T14:35:15.695Z,100299.50
2022-09-09T14:37:45.710Z,100297.91
2022-09-09T14:40:13.366Z,100303.75
2022-09-09T14:42:41.449Z,100297.88
2022-09-09T14:45:09.520Z,100294.53
2022-09-09T14:47:39.140Z,100300.53
2022-09-09T14:50:07.353Z,100303.81
2022-09-09T14:52:35.109Z,100295.28
2022-09-09T14:55:02.756Z,100290.84
2022-09-09T14:57:30.514Z,100293.63
2022-09-09T14:59:58.138Z,100299.66
2022-09-09T15:02:25.784Z,100299.69
2022-09-09T15:04:54.461Z,100295.00
2022-09-09T15:07:23.373Z,100299.06
2022-09-09T15:09:51.042Z,100295.16
2022-09-09T15:12:19.913Z,100295.59
2022-09-09T15:14:49.265Z,100303.06
2022-09-09T15:17:17.317Z,100299.94
2022-09-09T15:19:44.948Z,100299.19
2022-09-09T15:22:12.679Z,100295.91
2022-09-09T15:24:40.327Z,100297.66
2022-09-09T15:27:08.038Z,100293.59
2022-09-09T15:29:38.624Z,100296.91
2022-09-09T15:32:06.335Z,100297.38
2022-09-09T15:34:34.210Z,100291.34
2022-09-09T15:37:01.869Z,100297.78
2022-09-09T15:39:29.470Z,100291.75
2022-09-09T15:41:58.026Z,100296.94
2022-09-09T15:44:26.825Z,100294.56
2022-09-09T15:46:57.676Z,100294.63
2022-09-09T15:49:27.159Z,100297.44
2022-09-09T15:52:04.470Z,100292.19
2022-09-09T15:54:35.363Z,100303.09
2022-09-09T15:57:08.314Z,100300.66
2022-09-09T15:59:36.142Z,100291.47
2022-09-09T16:02:04.502Z,100299.50
2022-09-09T16:04:32.364Z,100297.47
2022-09-09T16:07:02.178Z,100295.84
2022-09-09T16:09:30.979Z,100303.97
2022-09-09T16:12:01.970Z,100296.75
2022-09-09T16:14:35.130Z,100290.69
2022-09-09T16:17:07.262Z,100297.91
2022-09-09T16:19:35.801Z,100299.59
2022-09-09T16:22:05.231Z,100297.09
2022-09-09T16:24:33.595Z,100292.31
2022-09-09T16:27:01.516Z,100299.50
2022-09-09T16:29:32.904Z,100299.53
2022-09-09T16:32:03.915Z,100302.78
2022-09-09T16:34:32.365Z,100318.03
2022-09-09T16:37:00.300Z,100312.44
2022-09-09T16:39:29.006Z,100303.16
2022-09-09T16:41:58.674Z,100323.69
2022-09-09T16:44:29.779Z,100311.63
2022-09-09T16:47:00.768Z,100322.88
2022-09-09T16:49:32.139Z,100315.66
2022-09-09T16:52:00.943Z,100316.84
2022-09-09T16:54:30.451Z,100316.47
2022-09-09T16:57:00.685Z,100313.25
2022-09-09T16:59:28.793Z,100314.06
2022-09-09T17:01:57.527Z,100321.28
2022-09-09T17:04:29.245Z,100332.09
2022-09-09T17:06:58.588Z,100325.31
2022-09-09T17:09:30.508Z,100320.06
2022-09-09T17:11:59.659Z,100328.09
2022-09-09T17:14:27.936Z,100327.69
2022-09-09T17:17:09.399Z,100321.28
2022-09-09T17:19:46.479Z,100320.47
2022-09-09T17:22:17.904Z,100327.69
2022-09-09T17:24:47.655Z,100326.09
2022-09-09T17:27:15.524Z,100334.13
2022-09-09T17:29:44.042Z,100338.06
2022-09-09T17:32:12.084Z,100335.72
2022-09-09T17:34:40.039Z,100349.31
2022-09-09T17:37:07.967Z,100339.66
2022-09-09T17:39:35.970Z,100346.09
2022-09-09T17:42:04.395Z,100351.75
2022-09-09T17:44:33.638Z,100350.50
2022-09-09T17:47:01.595Z,100362.94
2022-09-09T17:49:29.301Z,100367.34
2022-09-09T17:51:57.680Z,100360.50
2022-09-09T17:54:25.802Z,100367.28
2022-09-09T17:56:53.659Z,100375.75
2022-09-09T17:59:21.479Z,100374.06
2022-09-09T18:01:51.154Z,100371.66
2022-09-09T18:04:20.576Z,100373.28
2022-09-09T18:06:53.976Z,100381.25
2022-09-09T18:09:24.816Z,100379.22
2022-09-09T18:11:58.191Z,100383.88
2022-09-09T18:14:31.797Z,100383.09
2022-09-09T18:17:02.728Z,100380.03
2022-09-09T18:19:33.198Z,100373.25
2022-09-09T18:22:03.456Z,100376.41
2022-09-09T18:24:32.044Z,100378.31
2022-09-09T18:27:00.268Z,100381.94
2022-09-09T18:29:28.487Z,100383.75
2022-09-09T18:31:56.375Z,100393.91
2022-09-09T18:34:26.070Z,100387.47
2022-09-09T18:36:56.211Z,100395.09
2022-09-09T18:39:27.828Z,100400.69
2022-09-09T18:42:02.479Z,100407.41
2022-09-09T18:44:34.788Z,100401.13
2022-09-09T18:47:03.892Z,100393.91
2022-09-09T18:49:33.419Z,100404.03
2022-09-09T18:52:02.930Z,100404.06
2022-09-09T18:54:33.535Z,100404.91
2022-09-09T18:57:01.705Z,100401.84
2022-09-09T18:59:30.347Z,100409.13
2022-09-09T19:01:58.440Z,100412.41
2022-09-09T19:04:27.559Z,100407.16
2022-09-09T19:06:59.203Z,100413.56
2022-09-09T19:09:33.929Z,100407.47
2022-09-09T19:12:02.569Z,100418.97
2022-09-09T19:14:31.066Z,100414.69
2022-09-09T19:16:59.053Z,100416.09
2022-09-09T19:19:29.580Z,100423.69
2022-09-09T19:21:58.279Z,100420.19
2022-09-09T19:24:32.079Z,100425.03
2022-09-09T19:27:03.764Z,100420.22
2022-09-09T19:29:34.018Z,100425.06
2022-09-09T19:34:52.440Z,100433.84
2022-09-09T19:37:20.708Z,100426.91
2022-09-09T19:39:49.590Z,100432.28
2022-09-09T19:42:17.610Z,100427.84
2022-09-09T19:44:45.570Z,100429.56
2022-09-09T19:47:15.169Z,100437.50
2022-09-09T19:49:46.921Z,100431.63
2022-09-09T19:52:16.522Z,100441.19
2022-09-09T19:54:45.902Z,100439.38
2022-09-09T19:57:13.912Z,100439.00
2022-09-09T19:59:41.867Z,100448.25
2022-09-09T20:02:13.409Z,100450.28
2022-09-09T20:04:42.438Z,100454.63
2022-09-09T20:07:10.510Z,100449.84
2022-09-09T20:09:38.457Z,100451.22
2022-09-09T20:12:06.513Z,100448.81
2022-09-09T20:14:39.228Z,100456.41
2022-09-09T20:17:07.681Z,100454.75
2022-09-09T20:19:36.042Z,100458.88
2022-09-09T20:22:03.924Z,100461.31
2022-09-09T20:24:31.797Z,100461.53
2022-09-09T20:26:59.808Z,100459.78
2022-09-09T20:29:27.643Z,100466.31
2022-09-09T20:31:55.523Z,100474.84
2022-09-09T20:34:25.935Z,100466.06
2022-09-09T20:36:55.003Z,100460.88
2022-09-09T20:39:23.320Z,100458.13
2022-09-09T20:41:51.906Z,100456.41
2022-09-09T20:44:24.421Z,100464.94
2022-09-09T20:47:02.977Z,100455.38
2022-09-09T20:49:31.230Z,100461.72
2022-09-09T20:52:00.634Z,100465.13
2022-09-09T20:54:36.074Z,100452.50
2022-09-09T20:57:08.830Z,100467.19
2022-09-09T20:59:41.000Z,100455.28
2022-09-09T21:02:11.472Z,100439.94
2022-09-09T21:04:39.967Z,100446.56
2022-09-09T21:07:08.203Z,100439.72
2022-09-09T21:09:41.740Z,100442.56
2022-09-09T21:12:11.149Z,100432.50
2022-09-09T21:14:42.603Z,100433.78
2022-09-09T21:17:11.309Z,100453.03
2022-09-09T21:19:39.022Z,100485.16
2022-09-09T21:22:11.931Z,100503.56
2022-09-09T21:24:41.491Z,100514.50
2022-09-09T21:27:11.067Z,100537.69
2022-09-09T21:29:39.568Z,100499.31
2022-09-09T21:32:08.108Z,100475.78
2022-09-09T21:34:36.209Z,100455.75
2022-09-09T21:37:03.958Z,100484.72
2022-09-09T21:39:33.986Z,100493.00
2022-09-09T21:42:02.832Z,100509.44
2022-09-09T21:44:31.073Z,100523.47
2022-09-09T21:46:58.946Z,100520.41
2022-09-09T21:49:27.588Z,100517.78
2022-09-09T21:51:55.343Z,100506.94
2022-09-09T21:54:23.263Z,100505.94
2022-09-09T21:56:52.455Z,100492.41
2022-09-09T21:59:20.565Z,100482.06
2022-09-09T22:01:48.531Z,100493.84
2022-09-09T22:06:44.454Z,100504.72
2022-09-09T22:09:12.585Z,100510.25
2022-09-09T22:11:40.745Z,100523.97
2022-09-09T22:14:09.197Z,100524.00
2022-09-09T22:16:37.299Z,100513.81
2022-09-09T22:19:05.222Z,100518.28
2022-09-09T22:21:35.952Z,100519.22
2022-09-09T22:24:05.492Z,100523.16
2022-09-09T22:26:36.839Z,100526.25
2022-09-09T22:29:07.846Z,100514.22
2022-09-09T22:31:36.657Z,100503.56
2022-09-09T22:34:05.306Z,100512.91
2022-09-09T22:36:33.193Z,100497.97
2022-09-09T22:39:02.173Z,100499.03
2022-09-09T22:41:30.187Z,100503.81
2022-09-09T22:43:59.225Z,100503.66
2022-09-09T22:46:27.020Z,100508.16
2022-09-09T22:48:54.819Z,100509.59
2022-09-09T22:51:22.770Z,100519.09
2022-09-09T22:53:50.565Z,100516.28
2022-09-09T22:56:19.712Z,100513.50
2022-09-09T22:58:52.495Z,100518.03
2022-09-09T23:01:21.166Z,100525.63
2022-09-09T23:03:50.698Z,100525.38
2022-09-09T23:06:24.882Z,100520.91
2022-09-09T23:09:02.753Z,100513.31
2022-09-09T23:11:37.108Z,100508.56
2022-09-09T23:14:09.321Z,100500.56
2022-09-09T23:20:24.056Z,100514.00
2022-09-09T23:22:58.765Z,100509.06
2022-09-09T23:25:28.059Z,100503.31
2022-09-09T23:27:55.880Z,100511.06
2022-09-09T23:30:23.626Z,100511.84
2022-09-09T23:32:51.865Z,100499.97
2022-09-09T23:35:19.653Z,100505.13
2022-09-09T23:37:48.175Z,100505.13
2022-09-09T23:40:16.094Z,100503.50
2022-09-09T23:43:41.437Z,100509.06
2022-09-09T23:46:08.574Z,100513.19
2022-09-09T23:48:43.561Z,100517.59
2022-09-09T23:51:17.565Z,100516.44
2022-09-09T23:53:51.252Z,100526.13
2022-09-09T23:56:24.297Z,100522.53
2022-09-09T23:58:52.814Z,100512.03
